Time;durP1;ratioP1;P1;durP2;ratioP2;P2;SDS_P1;SDS_P2;PMS_P1;PMS_P2;Temp;Humidity;BMP_temperature;BMP_pressure;BME280_temperature;BME280_humidity;BME280_pressure;Samples;Min_cycle;Max_cycle;Signal;HPM_P1;HPM_P2
2023/05/12 00:01:24;;;;;;;;;;;12.00;68.30;;;;;;4141936;28;19987;-86
2023/05/12 00:03:45;;;;;;;;;;;12.10;68.30;;;;;;4142177;28;19925;-86
2023/05/12 00:06:06;;;;;;;;;;;12.00;68.20;;;;;;4143695;28;19944;-85
2023/05/12 00:08:26;;;;;;;;;;;12.10;68.20;;;;;;4144540;28;19940;-85
2023/05/12 00:10:47;;;;;;;;;;;12.20;68.30;;;;;;4145612;28;19976;-87
2023/05/12 00:13:08;;;;;;;;;;;12.10;68.10;;;;;;4155863;28;19917;-86
2023/05/12 00:15:28;;;;;;;;;;;12.10;68.20;;;;;;4157435;28;20071;-86
2023/05/12 00:17:51;;;;;;;;;;;12.20;68.30;;;;;;4147652;28;20206;-85
2023/05/12 00:20:11;;;;;;;;;;;12.10;68.10;;;;;;4136879;28;19913;-86
2023/05/12 00:22:32;;;;;;;;;;;12.10;68.20;;;;;;4154099;28;20367;-85
2023/05/12 00:24:33;;;;;;;;;;;12.10;68.30;;;;;;4140146;28;19920;-85
2023/05/12 00:26:37;;;;;;;;;;;12.10;68.20;;;;;;4125664;28;19914;-85
2023/05/12 00:28:58;;;;;;;;;;;12.10;68.40;;;;;;4142019;28;19914;-86
2023/05/12 00:31:18;;;;;;;;;;;12.00;68.30;;;;;;4157929;28;19913;-85
2023/05/12 00:33:39;;;;;;;;;;;12.00;68.30;;;;;;4145635;28;20008;-86
2023/05/12 00:36:02;;;;;;;;;;;12.10;68.30;;;;;;4140073;28;19917;-87
2023/05/12 00:38:25;;;;;;;;;;;12.00;68.20;;;;;;4143646;28;19917;-86
2023/05/12 00:40:46;;;;;;;;;;;12.10;68.20;;;;;;4144820;28;19929;-85
2023/05/12 00:43:07;;;;;;;;;;;12.10;68.10;;;;;;4156834;28;19917;-86
2023/05/12 00:45:28;;;;;;;;;;;12.10;68.00;;;;;;4143134;28;20010;-85
2023/05/12 00:47:50;;;;;;;;;;;12.10;68.00;;;;;;4144710;28;20000;-85
2023/05/12 00:50:11;;;;;;;;;;;12.00;67.80;;;;;;4138393;28;19922;-85
2023/05/12 00:52:31;;;;;;;;;;;12.00;68.10;;;;;;4142453;28;19999;-88
2023/05/12 00:54:54;;;;;;;;;;;12.10;68.10;;;;;;4151682;28;19921;-85
2023/05/12 00:57:24;;;;;;;;;;;12.00;68.20;;;;;;4144981;28;19913;-85
2023/05/12 00:59:45;;;;;;;;;;;12.10;68.10;;;;;;4157232;28;19913;-86
2023/05/12 01:02:06;;;;;;;;;;;12.10;68.20;;;;;;4144631;28;20683;-85
2023/05/12 01:04:29;;;;;;;;;;;12.10;68.30;;;;;;4153438;28;19927;-86
2023/05/12 01:06:55;;;;;;;;;;;12.10;68.40;;;;;;4136085;28;19928;-86
2023/05/12 01:09:16;;;;;;;;;;;12.10;68.30;;;;;;4144860;28;20009;-85
2023/05/12 01:11:44;;;;;;;;;;;12.00;68.20;;;;;;4153686;28;19917;-88
2023/05/12 01:13:47;;;;;;;;;;;12.00;68.60;;;;;;4141934;28;20390;-86
2023/05/12 01:15:58;;;;;;;;;;;12.00;68.70;;;;;;4139509;28;19918;-86
2023/05/12 01:18:03;;;;;;;;;;;11.90;68.40;;;;;;4131359;28;19941;-85
2023/05/12 01:20:06;;;;;;;;;;;12.00;68.70;;;;;;4117934;28;19914;-86
2023/05/12 01:22:07;;;;;;;;;;;12.00;68.70;;;;;;4154661;28;19924;-86
2023/05/12 01:24:12;;;;;;;;;;;12.00;69.30;;;;;;4127292;28;19953;-86
2023/05/12 01:26:12;;;;;;;;;;;12.00;68.40;;;;;;4139790;28;19917;-86
2023/05/12 01:28:13;;;;;;;;;;;12.00;68.50;;;;;;4143326;28;20078;-85
2023/05/12 01:30:17;;;;;;;;;;;12.00;68.30;;;;;;4141086;28;19925;-86
2023/05/12 01:32:19;;;;;;;;;;;12.00;68.40;;;;;;4156977;28;19913;-86
2023/05/12 01:34:20;;;;;;;;;;;12.00;68.40;;;;;;4138141;28;20448;-86
2023/05/12 01:36:21;;;;;;;;;;;12.10;68.50;;;;;;4158434;28;19924;-85
2023/05/12 01:38:22;;;;;;;;;;;12.00;68.20;;;;;;4126152;28;19914;-86
2023/05/12 01:40:24;;;;;;;;;;;12.00;68.40;;;;;;4128333;28;19914;-85
2023/05/12 01:42:26;;;;;;;;;;;12.00;68.50;;;;;;4124615;28;19926;-88
2023/05/12 01:44:47;;;;;;;;;;;12.00;68.40;;;;;;4158295;28;19971;-86
2023/05/12 01:46:48;;;;;;;;;;;11.90;68.80;;;;;;4156658;28;19913;-86
2023/05/12 01:48:49;;;;;;;;;;;12.00;68.90;;;;;;4156559;28;19923;-87
2023/05/12 01:50:52;;;;;;;;;;;12.00;68.90;;;;;;4142472;28;20001;-86
2023/05/12 01:52:53;;;;;;;;;;;11.90;69.00;;;;;;4126266;28;19914;-87
2023/05/12 01:54:53;;;;;;;;;;;12.00;69.20;;;;;;4136644;28;19936;-86
2023/05/12 01:57:14;;;;;;;;;;;11.90;69.10;;;;;;4142354;28;19913;-87
2023/05/12 01:59:35;;;;;;;;;;;11.90;69.10;;;;;;4158163;28;19917;-85
2023/05/12 02:02:00;;;;;;;;;;;11.90;69.00;;;;;;4158596;28;19922;-86
2023/05/12 02:04:03;;;;;;;;;;;12.00;69.00;;;;;;4128395;28;20499;-85
2023/05/12 02:06:31;;;;;;;;;;;11.90;69.10;;;;;;4149157;28;19940;-86
2023/05/12 02:08:52;;;;;;;;;;;11.90;69.00;;;;;;4145859;28;19918;-85
2023/05/12 02:11:12;;;;;;;;;;;12.00;69.10;;;;;;4162431;28;19917;-86
2023/05/12 02:13:33;;;;;;;;;;;12.00;69.20;;;;;;4146539;28;20008;-86
2023/05/12 02:15:56;;;;;;;;;;;11.90;69.00;;;;;;4149052;28;19920;-86
2023/05/12 02:18:17;;;;;;;;;;;11.90;69.20;;;;;;4147868;28;20446;-85
2023/05/12 02:20:38;;;;;;;;;;;11.80;69.10;;;;;;4163297;28;19956;-85
2023/05/12 02:22:58;;;;;;;;;;;11.90;69.40;;;;;;4146146;28;19921;-87
2023/05/12 02:25:20;;;;;;;;;;;11.80;69.30;;;;;;4161340;28;19920;-85
2023/05/12 02:27:40;;;;;;;;;;;11.90;69.40;;;;;;4158008;28;20398;-85
2023/05/12 02:30:01;;;;;;;;;;;11.80;69.50;;;;;;4157937;28;19924;-87
2023/05/12 02:32:21;;;;;;;;;;;11.80;69.40;;;;;;4147588;28;20164;-85
2023/05/12 02:34:42;;;;;;;;;;;11.80;69.20;;;;;;4149001;28;20012;-86
2023/05/12 02:36:43;;;;;;;;;;;11.80;69.50;;;;;;4145253;28;19941;-85
2023/05/12 02:38:43;;;;;;;;;;;11.90;69.50;;;;;;4161905;28;19923;-89
2023/05/12 02:40:45;;;;;;;;;;;11.90;69.70;;;;;;4146500;28;19918;-85
2023/05/12 02:42:45;;;;;;;;;;;11.80;69.60;;;;;;4145080;28;21264;-86
2023/05/12 02:44:46;;;;;;;;;;;11.80;69.60;;;;;;4160516;28;19921;-87
2023/05/12 02:46:52;;;;;;;;;;;11.80;69.60;;;;;;4131750;28;19964;-86
2023/05/12 02:49:01;;;;;;;;;;;11.80;69.80;;;;;;4131951;28;19918;-87
2023/05/12 02:51:01;;;;;;;;;;;11.80;69.70;;;;;;4152057;23;19930;-86
2023/05/12 02:53:08;;;;;;;;;;;11.80;69.80;;;;;;4129934;28;20005;-88
2023/05/12 02:55:11;;;;;;;;;;;11.70;69.70;;;;;;4109346;28;19914;-86
2023/05/12 02:57:11;;;;;;;;;;;11.80;69.80;;;;;;4125098;28;19914;-85
2023/05/12 02:59:12;;;;;;;;;;;11.80;69.90;;;;;;4130116;28;19917;-86
2023/05/12 03:01:13;;;;;;;;;;;11.80;70.00;;;;;;4130115;28;19948;-87
2023/05/12 03:03:14;;;;;;;;;;;11.90;70.10;;;;;;4139676;28;20013;-86
2023/05/12 03:05:14;;;;;;;;;;;11.90;70.40;;;;;;4142104;28;19913;-85
2023/05/12 03:07:15;;;;;;;;;;;11.80;70.50;;;;;;4128135;28;20394;-85
2023/05/12 03:09:15;;;;;;;;;;;11.90;70.60;;;;;;4144765;28;19921;-85
2023/05/12 03:11:16;;;;;;;;;;;11.80;70.60;;;;;;4113564;28;19914;-86
2023/05/12 03:13:17;;;;;;;;;;;11.80;70.70;;;;;;4142414;28;19914;-87
2023/05/12 03:15:17;;;;;;;;;;;11.80;70.70;;;;;;4142157;28;19913;-88
2023/05/12 03:17:18;;;;;;;;;;;11.80;70.90;;;;;;4141623;28;19925;-85
2023/05/12 03:19:18;;;;;;;;;;;11.80;70.90;;;;;;4141381;28;19939;-86
2023/05/12 03:21:19;;;;;;;;;;;11.80;70.90;;;;;;4127023;28;19993;-86
2023/05/12 03:23:20;;;;;;;;;;;11.90;71.00;;;;;;4120651;28;19968;-86
2023/05/12 03:25:20;;;;;;;;;;;11.90;71.10;;;;;;4144209;28;19918;-86
2023/05/12 03:27:21;;;;;;;;;;;11.90;71.00;;;;;;4122426;28;19910;-86
2023/05/12 03:29:23;;;;;;;;;;;11.90;71.00;;;;;;4107617;28;19914;-87
2023/05/12 03:31:26;;;;;;;;;;;11.80;70.90;;;;;;4139155;28;19914;-87
2023/05/12 03:33:28;;;;;;;;;;;11.80;70.90;;;;;;4139696;28;19922;-87
2023/05/12 03:35:29;;;;;;;;;;;11.70;70.90;;;;;;4110918;28;19928;-87
2023/05/12 03:37:30;;;;;;;;;;;11.90;71.10;;;;;;4126290;28;19981;-86
2023/05/12 03:39:31;;;;;;;;;;;11.70;71.00;;;;;;4130396;28;19917;-85
2023/05/12 03:41:32;;;;;;;;;;;11.80;71.00;;;;;;4125372;28;19917;-87
2023/05/12 03:43:33;;;;;;;;;;;11.80;71.00;;;;;;4138764;28;20142;-85
2023/05/12 03:45:34;;;;;;;;;;;11.80;71.80;;;;;;4122554;28;20423;-85
2023/05/12 03:47:34;;;;;;;;;;;11.80;71.10;;;;;;4106568;28;19919;-85
2023/05/12 03:49:35;;;;;;;;;;;11.80;71.10;;;;;;4113277;28;19961;-85
2023/05/12 03:51:36;;;;;;;;;;;11.70;71.00;;;;;;4140249;28;19969;-85
2023/05/12 03:53:38;;;;;;;;;;;11.80;71.00;;;;;;4111222;28;19941;-85
2023/05/12 03:55:40;;;;;;;;;;;11.80;71.10;;;;;;4140257;28;19983;-87
2023/05/12 03:57:40;;;;;;;;;;;11.80;71.20;;;;;;4127290;28;19918;-87
2023/05/12 03:59:41;;;;;;;;;;;11.70;71.10;;;;;;4141731;28;19952;-85
2023/05/12 04:01:42;;;;;;;;;;;11.80;71.30;;;;;;4111032;28;19925;-86
2023/05/12 04:03:42;;;;;;;;;;;11.80;71.30;;;;;;4105817;28;20061;-85
2023/05/12 04:05:43;;;;;;;;;;;11.80;71.30;;;;;;4104725;28;19922;-86
2023/05/12 04:07:44;;;;;;;;;;;11.80;71.30;;;;;;4106137;28;19922;-85
2023/05/12 04:09:45;;;;;;;;;;;11.80;71.40;;;;;;4134860;28;19917;-85
2023/05/12 04:11:46;;;;;;;;;;;11.80;71.40;;;;;;4104193;28;19922;-87
2023/05/12 04:13:46;;;;;;;;;;;11.80;71.50;;;;;;4120805;28;20012;-86
2023/05/12 04:15:48;;;;;;;;;;;11.80;71.70;;;;;;4122489;28;20006;-87
2023/05/12 04:17:49;;;;;;;;;;;11.80;71.80;;;;;;4136345;28;20024;-86
2023/05/12 04:19:51;;;;;;;;;;;11.90;71.80;;;;;;4121800;28;19921;-86
2023/05/12 04:21:52;;;;;;;;;;;11.80;71.80;;;;;;4135272;28;20352;-85
2023/05/12 04:23:53;;;;;;;;;;;11.90;72.10;;;;;;4105803;28;19910;-86
2023/05/12 04:25:53;;;;;;;;;;;12.00;72.10;;;;;;4135332;28;19917;-85
2023/05/12 04:27:54;;;;;;;;;;;11.90;72.10;;;;;;4122890;28;20336;-86
2023/05/12 04:29:57;;;;;;;;;;;11.90;71.90;;;;;;4127700;28;20565;-86
2023/05/12 04:31:59;;;;;;;;;;;12.00;71.70;;;;;;4130805;28;19905;-85
2023/05/12 04:34:00;;;;;;;;;;;12.10;71.70;;;;;;4125887;28;20355;-86
2023/05/12 04:36:01;;;;;;;;;;;12.00;71.10;;;;;;4125616;28;19925;-87
2023/05/12 04:38:02;;;;;;;;;;;12.10;71.00;;;;;;4110462;28;19918;-86
2023/05/12 04:40:03;;;;;;;;;;;12.10;70.90;;;;;;4108401;28;19981;-86
2023/05/12 04:42:04;;;;;;;;;;;12.20;70.90;;;;;;4110597;28;20024;-86
2023/05/12 04:44:07;;;;;;;;;;;12.20;70.70;;;;;;4122460;28;20711;-86
2023/05/12 04:46:07;;;;;;;;;;;12.30;70.50;;;;;;4139323;28;19918;-86
2023/05/12 04:48:08;;;;;;;;;;;12.30;70.20;;;;;;4122070;28;20347;-85
2023/05/12 04:50:09;;;;;;;;;;;12.40;70.20;;;;;;4139222;28;19921;-88
2023/05/12 04:52:10;;;;;;;;;;;12.40;70.10;;;;;;4121046;28;19910;-87
2023/05/12 04:54:10;;;;;;;;;;;12.50;69.80;;;;;;4123530;28;19910;-85
2023/05/12 04:56:11;;;;;;;;;;;12.50;69.40;;;;;;4139250;28;19965;-87
2023/05/12 04:58:15;;;;;;;;;;;12.50;68.90;;;;;;4121196;28;19937;-87
2023/05/12 05:00:18;;;;;;;;;;;12.60;68.60;;;;;;4111508;28;19978;-86
2023/05/12 05:02:22;;;;;;;;;;;12.60;67.90;;;;;;4121737;28;19918;-86
2023/05/12 05:04:23;;;;;;;;;;;12.70;67.80;;;;;;4123400;28;19928;-86
2023/05/12 05:06:24;;;;;;;;;;;12.70;67.50;;;;;;4109641;28;20417;-86
2023/05/12 05:08:32;;;;;;;;;;;12.80;67.30;;;;;;4127032;28;20320;-86
2023/05/12 05:10:39;;;;;;;;;;;12.70;66.90;;;;;;4141068;28;20156;-86
2023/05/12 05:12:40;;;;;;;;;;;12.70;66.70;;;;;;4127288;28;19941;-87
2023/05/12 05:15:01;;;;;;;;;;;12.90;66.90;;;;;;4144469;28;19921;-85
2023/05/12 05:17:21;;;;;;;;;;;12.80;67.00;;;;;;4140588;28;19913;-86
2023/05/12 05:19:42;;;;;;;;;;;12.80;67.60;;;;;;4147114;28;19929;-88
2023/05/12 05:22:03;;;;;;;;;;;12.70;67.50;;;;;;4127405;28;20161;-86
2023/05/12 05:24:10;;;;;;;;;;;12.80;67.90;;;;;;4126917;28;19914;-86
2023/05/12 05:26:36;;;;;;;;;;;12.90;67.80;;;;;;4130669;28;20392;-86
2023/05/12 05:28:38;;;;;;;;;;;12.80;67.50;;;;;;4130502;28;20154;-85
2023/05/12 05:30:49;;;;;;;;;;;12.90;67.50;;;;;;4120662;28;19918;-84
2023/05/12 05:32:57;;;;;;;;;;;12.90;67.10;;;;;;4123295;28;19914;-84
2023/05/12 05:34:58;;;;;;;;;;;13.00;67.20;;;;;;4120481;28;19918;-84
2023/05/12 05:36:59;;;;;;;;;;;13.00;67.20;;;;;;4144105;28;19955;-84
2023/05/12 05:39:12;;;;;;;;;;;;;;;;;;;;;
2023/05/12 05:41:47;;;;;;;;;;;13.00;66.70;;;;;;4141341;28;19945;-84
2023/05/12 05:43:47;;;;;;;;;;;13.10;66.50;;;;;;4107014;28;19926;-84
2023/05/12 05:45:51;;;;;;;;;;;13.10;66.40;;;;;;4137465;28;19993;-85
2023/05/12 05:48:00;;;;;;;;;;;13.10;66.60;;;;;;4136837;28;19925;-85
2023/05/12 05:50:01;;;;;;;;;;;13.00;66.70;;;;;;4140656;28;19922;-84
2023/05/12 05:52:08;;;;;;;;;;;13.00;66.80;;;;;;4112146;28;19918;-85
2023/05/12 05:54:09;;;;;;;;;;;13.00;67.10;;;;;;4137495;28;19932;-86
2023/05/12 05:56:12;;;;;;;;;;;13.00;67.30;;;;;;4123964;28;20376;-84
2023/05/12 05:58:19;;;;;;;;;;;13.00;67.50;;;;;;4126681;28;20470;-85
2023/05/12 06:00:37;;;;;;;;;;;13.10;67.60;;;;;;4126955;28;20529;-84
2023/05/12 06:02:38;;;;;;;;;;;13.10;67.70;;;;;;4145764;28;19914;-85
2023/05/12 06:04:38;;;;;;;;;;;13.10;67.80;;;;;;4123660;28;19924;-85
2023/05/12 06:06:39;;;;;;;;;;;13.10;67.70;;;;;;4114299;28;19925;-86
2023/05/12 06:08:42;;;;;;;;;;;13.20;67.50;;;;;;4133432;28;20234;-86
2023/05/12 06:10:43;;;;;;;;;;;13.30;67.80;;;;;;4146598;28;19925;-85
2023/05/12 06:12:44;;;;;;;;;;;13.20;68.10;;;;;;4123329;28;19914;-85
2023/05/12 06:14:44;;;;;;;;;;;13.30;68.50;;;;;;4159084;28;19902;-85
2023/05/12 06:16:45;;;;;;;;;;;13.30;68.10;;;;;;4156362;28;19928;-85
2023/05/12 06:19:06;;;;;;;;;;;13.40;67.60;;;;;;4141169;28;19949;-85
2023/05/12 06:21:22;;;;;;;;;;;13.40;67.50;;;;;;4153109;28;19906;-84
2023/05/12 06:23:23;;;;;;;;;;;13.50;66.80;;;;;;4139971;28;19897;-85
2023/05/12 06:25:26;;;;;;;;;;;13.50;66.40;;;;;;4137223;28;19922;-85
2023/05/12 06:27:27;;;;;;;;;;;13.50;65.40;;;;;;4138407;28;19917;-84
2023/05/12 06:29:29;;;;;;;;;;;13.50;65.30;;;;;;4126468;28;19953;-84
2023/05/12 06:31:36;;;;;;;;;;;13.50;65.80;;;;;;4140234;28;19957;-85
2023/05/12 06:33:37;;;;;;;;;;;13.60;65.90;;;;;;4137844;28;19898;-85
2023/05/12 06:35:37;;;;;;;;;;;13.50;65.10;;;;;;4122389;28;19958;-85
2023/05/12 06:37:43;;;;;;;;;;;13.60;65.40;;;;;;4157717;28;20026;-84
2023/05/12 06:39:46;;;;;;;;;;;13.60;65.10;;;;;;4140546;28;19981;-85
2023/05/12 06:41:47;;;;;;;;;;;13.60;65.40;;;;;;4139610;28;19925;-86
2023/05/12 06:43:53;;;;;;;;;;;13.60;65.40;;;;;;4153382;28;19928;-85
2023/05/12 06:45:56;;;;;;;;;;;13.60;65.70;;;;;;4138582;28;19987;-85
2023/05/12 06:47:57;;;;;;;;;;;13.70;65.80;;;;;;4140295;28;19981;-84
2023/05/12 06:50:08;;;;;;;;;;;13.70;65.70;;;;;;4151316;28;19913;-85
2023/05/12 06:52:16;;;;;;;;;;;13.70;65.10;;;;;;4125914;28;19986;-84
2023/05/12 06:54:25;;;;;;;;;;;13.60;65.10;;;;;;4127179;28;20202;-85
2023/05/12 06:56:28;;;;;;;;;;;13.70;65.50;;;;;;4131331;28;19925;-85
2023/05/12 06:58:31;;;;;;;;;;;13.70;65.60;;;;;;4139558;28;19914;-84
2023/05/12 07:00:32;;;;;;;;;;;13.80;65.80;;;;;;4157077;28;19909;-85
2023/05/12 07:02:33;;;;;;;;;;;13.80;65.60;;;;;;4122258;28;19957;-85
2023/05/12 07:04:35;;;;;;;;;;;13.80;65.30;;;;;;4122923;28;20429;-85
2023/05/12 07:06:41;;;;;;;;;;;13.80;65.30;;;;;;4106926;28;21189;-86
2023/05/12 07:08:41;;;;;;;;;;;13.80;65.30;;;;;;4135679;28;19948;-85
2023/05/12 07:10:44;;;;;;;;;;;13.80;65.40;;;;;;4122268;28;20443;-85
2023/05/12 07:12:48;;;;;;;;;;;13.90;65.30;;;;;;4121185;28;19957;-85
2023/05/12 07:14:54;;;;;;;;;;;14.00;65.50;;;;;;4107264;28;19937;-84
2023/05/12 07:17:05;;;;;;;;;;;13.90;64.90;;;;;;4119578;28;19910;-85
2023/05/12 07:19:24;;;;;;;;;;;14.00;65.10;;;;;;4116618;28;19918;-85
2023/05/12 07:21:38;;;;;;;;;;;14.10;64.80;;;;;;4103398;28;20159;-85
2023/05/12 07:23:42;;;;;;;;;;;14.20;65.20;;;;;;4116568;28;19925;-85
2023/05/12 07:25:46;;;;;;;;;;;14.20;65.00;;;;;;4101430;28;19918;-85
2023/05/12 07:27:49;;;;;;;;;;;14.20;64.80;;;;;;4135783;28;20579;-85
2023/05/12 07:30:02;;;;;;;;;;;14.20;64.80;;;;;;4103443;28;19933;-85
2023/05/12 07:32:06;;;;;;;;;;;14.30;65.00;;;;;;4103498;28;20514;-86
2023/05/12 07:34:09;;;;;;;;;;;14.30;65.10;;;;;;4133872;28;19948;-85
2023/05/12 07:36:15;;;;;;;;;;;14.50;65.10;;;;;;4119984;28;19925;-84
2023/05/12 07:38:16;;;;;;;;;;;14.50;63.10;;;;;;4120186;28;20244;-84
2023/05/12 07:40:25;;;;;;;;;;;14.60;62.60;;;;;;4102483;28;20038;-85
2023/05/12 07:42:32;;;;;;;;;;;14.60;62.60;;;;;;4136599;28;20337;-84
2023/05/12 07:45:02;;;;;;;;;;;14.70;62.80;;;;;;4118756;28;20323;-84
2023/05/12 07:47:08;;;;;;;;;;;14.90;62.50;;;;;;4131517;28;19922;-85
2023/05/12 07:49:14;;;;;;;;;;;15.00;62.60;;;;;;4119494;28;19917;-85
2023/05/12 07:51:26;;;;;;;;;;;15.00;60.90;;;;;;4119802;28;19926;-85
2023/05/12 07:53:29;;;;;;;;;;;15.10;61.40;;;;;;4118733;28;20008;-84
2023/05/12 07:55:32;;;;;;;;;;;15.20;61.30;;;;;;4119886;28;20399;-84
2023/05/12 07:57:32;;;;;;;;;;;15.20;61.20;;;;;;4121326;28;19944;-84
2023/05/12 07:59:33;;;;;;;;;;;15.30;60.30;;;;;;4117333;28;19925;-85
2023/05/12 08:01:34;;;;;;;;;;;15.30;59.80;;;;;;4104759;28;19918;-85
2023/05/12 08:03:38;;;;;;;;;;;15.40;59.40;;;;;;4104256;28;20001;-84
2023/05/12 08:05:38;;;;;;;;;;;15.40;59.00;;;;;;4116977;28;19945;-85
2023/05/12 08:07:42;;;;;;;;;;;15.40;58.80;;;;;;4114155;28;19948;-85
2023/05/12 08:12:34;;;;;;;;;;;15.40;58.30;;;;;;4088994;29;19926;-84
2023/05/12 08:14:44;;;;;;;;;;;15.60;58.50;;;;;;4085540;29;19995;-84
2023/05/12 08:16:48;;;;;;;;;;;15.60;58.30;;;;;;4054227;29;19919;-85
2023/05/12 08:19:03;;;;;;;;;;;15.60;57.40;;;;;;4052703;29;20024;-85
2023/05/12 08:21:06;;;;;;;;;;;15.70;57.50;;;;;;4157825;23;19974;-85
2023/05/12 08:23:10;;;;;;;;;;;15.70;57.00;;;;;;4126496;28;20032;-84
2023/05/12 08:25:22;;;;;;;;;;;15.80;57.90;;;;;;4130809;28;20279;-85
2023/05/12 08:27:32;;;;;;;;;;;15.80;58.00;;;;;;4138402;28;20376;-85
2023/05/12 08:29:35;;;;;;;;;;;15.80;56.80;;;;;;4151322;28;19955;-84
2023/05/12 08:31:38;;;;;;;;;;;15.90;56.80;;;;;;4164029;28;20006;-84
2023/05/12 08:33:55;;;;;;;;;;;15.80;56.60;;;;;;4150177;28;19925;-85
2023/05/12 08:36:07;;;;;;;;;;;15.90;57.00;;;;;;4133006;28;19992;-84
2023/05/12 08:38:21;;;;;;;;;;;15.90;56.50;;;;;;4151796;28;19919;-84
2023/05/12 08:40:31;;;;;;;;;;;16.00;57.30;;;;;;4132461;28;19927;-84
2023/05/12 08:43:00;;;;;;;;;;;15.90;57.10;;;;;;4148426;28;19975;-86
2023/05/12 08:45:11;;;;;;;;;;;;;;;;;;;;;
2023/05/12 08:47:26;;;;;;;;;;;16.10;58.00;;;;;;4149953;28;19929;-84
2023/05/12 08:49:34;;;;;;;;;;;16.10;56.10;;;;;;4144400;28;19928;-85
2023/05/12 08:51:35;;;;;;;;;;;16.20;56.30;;;;;;4161295;28;19928;-84
2023/05/12 08:54:00;;;;;;;;;;;16.30;56.00;;;;;;4163682;28;19917;-85
2023/05/12 08:56:18;;;;;;;;;;;16.40;56.50;;;;;;4148810;28;20020;-85
2023/05/12 08:58:26;;;;;;;;;;;16.50;55.40;;;;;;4167020;28;19932;-85
2023/05/12 09:00:29;;;;;;;;;;;16.50;55.30;;;;;;4132369;28;19983;-85
2023/05/12 09:02:42;;;;;;;;;;;16.50;54.50;;;;;;4135046;28;20015;-84
2023/05/12 09:04:43;;;;;;;;;;;16.60;55.80;;;;;;4135504;28;20018;-85
2023/05/12 09:07:16;;;;;;;;;;;16.80;56.20;;;;;;4148696;28;20415;-84
2023/05/12 09:09:28;;;;;;;;;;;16.80;56.70;;;;;;4141947;23;19925;-86
2023/05/12 09:11:38;;;;;;;;;;;16.80;55.50;;;;;;4109261;28;19926;-84
2023/05/12 09:14:05;;;;;;;;;;;17.00;55.20;;;;;;4140676;28;19976;-84
2023/05/12 09:16:13;;;;;;;;;;;17.00;54.90;;;;;;4107493;28;19922;-85
2023/05/12 09:18:29;;;;;;;;;;;17.10;54.90;;;;;;4114442;28;20319;-85
2023/05/12 09:20:33;;;;;;;;;;;17.20;55.30;;;;;;4132528;28;19922;-85
2023/05/12 09:22:42;;;;;;;;;;;17.20;54.40;;;;;;4135670;28;19957;-85
2023/05/12 09:24:46;;;;;;;;;;;17.30;53.10;;;;;;4123408;28;20562;-84
2023/05/12 09:27:19;;;;;;;;;;;17.30;53.50;;;;;;4136845;28;20473;-84
2023/05/12 09:29:33;;;;;;;;;;;;;;;;;;;;;
2023/05/12 09:31:57;;;;;;;;;;;17.30;53.80;;;;;;4137129;28;19924;-84
2023/05/12 09:33:57;;;;;;;;;;;17.30;54.20;;;;;;4155792;28;19976;-85
2023/05/12 09:35:58;;;;;;;;;;;17.30;53.90;;;;;;4124069;28;19921;-85
2023/05/12 09:38:04;;;;;;;;;;;17.30;53.70;;;;;;4149174;28;20422;-85
2023/05/12 09:40:12;;;;;;;;;;;17.30;53.50;;;;;;4140231;28;20510;-85
2023/05/12 09:42:19;;;;;;;;;;;17.40;53.30;;;;;;4136242;28;20008;-85
2023/05/12 09:44:20;;;;;;;;;;;17.40;53.70;;;;;;4123186;28;19922;-83
2023/05/12 09:46:34;;;;;;;;;;;17.40;53.20;;;;;;4135889;28;20015;-84
2023/05/12 09:48:38;;;;;;;;;;;17.40;53.30;;;;;;4137930;28;21553;-85
2023/05/12 09:51:04;;;;;;;;;;;17.50;53.40;;;;;;4151798;28;20950;-85
2023/05/12 09:53:05;;;;;;;;;;;17.40;51.90;;;;;;4134349;28;20048;-84
2023/05/12 09:55:18;;;;;;;;;;;17.50;51.50;;;;;;4124722;28;20383;-84
2023/05/12 09:57:24;;;;;;;;;;;17.50;51.00;;;;;;4153248;28;20425;-83
2023/05/12 09:59:50;;;;;;;;;;;17.40;51.00;;;;;;4141330;28;20099;-84
2023/05/12 10:02:04;;;;;;;;;;;17.50;50.90;;;;;;4136537;28;19924;-84
2023/05/12 10:04:08;;;;;;;;;;;17.40;51.20;;;;;;4139681;28;19913;-85
2023/05/12 10:06:41;;;;;;;;;;;17.40;51.80;;;;;;4140999;28;19930;-86
2023/05/12 10:09:05;;;;;;;;;;;17.40;52.10;;;;;;4139659;28;20016;-84
2023/05/12 10:11:14;;;;;;;;;;;17.50;52.80;;;;;;4130888;28;20356;-85
2023/05/12 10:13:45;;;;;;;;;;;17.50;52.90;;;;;;4140780;28;20102;-84
2023/05/12 10:16:08;;;;;;;;;;;17.40;51.70;;;;;;4154991;28;20049;-84
2023/05/12 10:18:18;;;;;;;;;;;17.60;53.00;;;;;;4121589;28;19925;-86
2023/05/12 10:20:46;;;;;;;;;;;17.60;52.60;;;;;;4151007;28;19924;-83
2023/05/12 10:23:07;;;;;;;;;;;17.60;52.90;;;;;;4151940;28;19927;-84
2023/05/12 10:25:33;;;;;;;;;;;17.60;53.00;;;;;;4150710;28;19913;-84
2023/05/12 10:30:44;;;;;;;;;;;17.60;54.00;;;;;;4151683;28;19929;-87
2023/05/12 10:33:14;;;;;;;;;;;17.70;54.40;;;;;;4149479;28;19991;-84
2023/05/12 10:35:38;;;;;;;;;;;17.70;53.90;;;;;;4138743;28;19921;-86
2023/05/12 10:38:20;;;;;;;;;;;;;;;;;;;;;
2023/05/12 10:41:07;;;;;;;;;;;17.70;54.60;;;;;;4149942;28;19917;-85
2023/05/12 10:43:43;;;;;;;;;;;17.80;53.70;;;;;;4077491;29;20041;-84
2023/05/12 10:45:59;;;;;;;;;;;17.90;53.30;;;;;;4073880;29;20139;-85
2023/05/12 10:48:06;;;;;;;;;;;17.80;51.50;;;;;;4061684;29;19935;-85
2023/05/12 10:50:16;;;;;;;;;;;18.00;53.90;;;;;;4071937;29;19923;-85
2023/05/12 10:52:25;;;;;;;;;;;18.00;52.70;;;;;;4072523;29;19944;-85
2023/05/12 10:54:59;;;;;;;;;;;;;;;;;;;;;
2023/05/12 10:57:13;;;;;;;;;;;18.20;53.40;;;;;;4086860;28;20078;-84
2023/05/12 10:59:27;;;;;;;;;;;18.30;51.30;;;;;;4086678;28;19922;-85
2023/05/12 11:01:53;;;;;;;;;;;18.30;51.00;;;;;;4071233;28;20213;-84
2023/05/12 11:13:23;;;;;;;;;;;18.50;49.70;;;;;;4099833;28;20400;-85
2023/05/12 11:18:27;;;;;;;;;;;18.50;48.50;;;;;;4114796;28;20473;-86
2023/05/12 11:20:50;;;;;;;;;;;18.50;48.50;;;;;;4117229;28;20024;-85
2023/05/12 11:23:34;;;;;;;;;;;;;;;;;;;;;
2023/05/12 11:25:43;;;;;;;;;;;18.50;47.90;;;;;;4142150;28;19967;-85
2023/05/12 11:30:55;;;;;;;;;;;18.60;47.80;;;;;;4130790;28;19928;-85
2023/05/12 11:33:02;;;;;;;;;;;18.60;48.40;;;;;;4137713;28;19945;-85
2023/05/12 11:35:16;;;;;;;;;;;18.70;48.50;;;;;;4106281;28;20376;-85
2023/05/12 11:37:24;;;;;;;;;;;18.70;46.20;;;;;;4115623;28;22484;-85
2023/05/12 11:39:43;;;;;;;;;;;18.80;46.30;;;;;;4131048;28;21729;-86
2023/05/12 11:42:05;;;;;;;;;;;18.70;45.60;;;;;;4112968;28;19999;-85
2023/05/12 11:44:25;;;;;;;;;;;18.80;45.60;;;;;;4139863;28;20442;-85
2023/05/12 11:46:59;;;;;;;;;;;18.90;46.40;;;;;;4144436;28;19918;-84
2023/05/12 11:49:28;;;;;;;;;;;18.90;45.60;;;;;;4127897;28;20391;-84
2023/05/12 11:55:26;;;;;;;;;;;19.00;44.70;;;;;;4084295;29;19929;-85
2023/05/12 11:58:07;;;;;;;;;;;19.00;43.60;;;;;;4090051;29;19923;-85
2023/05/12 12:03:25;;;;;;;;;;;19.00;44.90;;;;;;4088944;29;20276;-85
2023/05/12 12:06:12;;;;;;;;;;;;;;;;;;;;;
2023/05/12 12:08:55;;;;;;;;;;;18.90;45.70;;;;;;4090077;28;19919;-85
2023/05/12 12:11:20;;;;;;;;;;;19.00;44.50;;;;;;4086306;29;20425;-84
2023/05/12 12:13:55;;;;;;;;;;;19.00;43.90;;;;;;4085728;28;20010;-87
2023/05/12 12:15:56;;;;;;;;;;;19.00;44.10;;;;;;4074255;29;19919;-85
2023/05/12 12:17:57;;;;;;;;;;;19.10;43.10;;;;;;4085053;28;19984;-85
2023/05/12 12:20:00;;;;;;;;;;;19.00;42.60;;;;;;4086905;28;20396;-85
2023/05/12 12:22:06;;;;;;;;;;;19.10;42.80;;;;;;4086766;29;20014;-84
2023/05/12 12:27:15;;;;;;;;;;;19.20;41.20;;;;;;4053672;29;19997;-87
2023/05/12 12:29:22;;;;;;;;;;;19.20;41.00;;;;;;4073758;29;19915;-87
2023/05/12 12:31:33;;;;;;;;;;;19.10;39.50;;;;;;4106091;28;20004;-85
2023/05/12 12:33:49;;;;;;;;;;;19.20;39.90;;;;;;4124313;28;19929;-85
2023/05/12 12:35:49;;;;;;;;;;;19.10;40.70;;;;;;4118945;28;19922;-84
2023/05/12 12:38:02;;;;;;;;;;;19.10;39.20;;;;;;4117057;28;19929;-85
2023/05/12 12:40:08;;;;;;;;;;;19.10;40.00;;;;;;4104297;28;19925;-85
2023/05/12 12:42:09;;;;;;;;;;;19.10;41.80;;;;;;4120419;28;20043;-84
2023/05/12 12:44:10;;;;;;;;;;;19.10;42.50;;;;;;4119556;28;19918;-85
2023/05/12 12:46:28;;;;;;;;;;;19.00;40.10;;;;;;4119566;28;19953;-84
2023/05/12 12:48:39;;;;;;;;;;;19.10;41.90;;;;;;4120761;28;19914;-85
2023/05/12 12:50:50;;;;;;;;;;;19.20;41.30;;;;;;4103193;28;19922;-85
2023/05/12 12:53:00;;;;;;;;;;;19.10;41.60;;;;;;4133799;28;19917;-85
2023/05/12 12:55:08;;;;;;;;;;;19.10;41.40;;;;;;4129910;28;20407;-86
2023/05/12 12:57:15;;;;;;;;;;;19.20;42.70;;;;;;4111558;28;19933;-85
2023/05/12 12:59:17;;;;;;;;;;;19.20;42.80;;;;;;4093128;28;20332;-86
2023/05/12 13:01:38;;;;;;;;;;;19.20;41.10;;;;;;4137724;28;19975;-84
2023/05/12 13:03:59;;;;;;;;;;;19.10;41.60;;;;;;4136510;28;19921;-84
2023/05/12 13:06:19;;;;;;;;;;;19.10;41.40;;;;;;4122185;28;19961;-85
2023/05/12 13:08:55;;;;;;;;;;;19.00;41.10;;;;;;4124871;28;20067;-85
2023/05/12 13:11:16;;;;;;;;;;;19.10;41.30;;;;;;4133186;28;19988;-85
2023/05/12 13:13:19;;;;;;;;;;;19.10;41.10;;;;;;4122543;28;20283;-85